sensor_id;sensor_type;location;lat;lon;timestamp;P1;durP1;ratioP1;P2;durP2;ratioP2
5493;SDS011;2769;49.864;8.656;2023-03-08T00:00:28;7.13;;;3.77;;
5493;SDS011;2769;49.864;8.656;2023-03-08T00:02:56;4.97;;;3.73;;
5493;SDS011;2769;49.864;8.656;2023-03-08T00:05:25;4.53;;;3.87;;
5493;SDS011;2769;49.864;8.656;2023-03-08T00:07:53;3.47;;;3.17;;
5493;SDS011;2769;49.864;8.656;2023-03-08T00:10:22;5.57;;;4.27;;
5493;SDS011;2769;49.864;8.656;2023-03-08T00:12:50;4.63;;;3.93;;
5493;SDS011;2769;49.864;8.656;2023-03-08T00:15:18;3.40;;;3.20;;
5493;SDS011;2769;49.864;8.656;2023-03-08T00:17:46;3.60;;;3.30;;
5493;SDS011;2769;49.864;8.656;2023-03-08T00:20:14;3.93;;;3.50;;
5493;SDS011;2769;49.864;8.656;2023-03-08T00:22:43;4.20;;;3.83;;
5493;SDS011;2769;49.864;8.656;2023-03-08T00:25:12;3.90;;;3.60;;
5493;SDS011;2769;49.864;8.656;2023-03-08T00:27:41;4.27;;;3.87;;
5493;SDS011;2769;49.864;8.656;2023-03-08T00:30:10;3.53;;;3.23;;
5493;SDS011;2769;49.864;8.656;2023-03-08T00:32:39;3.90;;;3.60;;
5493;SDS011;2769;49.864;8.656;2023-03-08T00:35:07;4.17;;;3.80;;
5493;SDS011;2769;49.864;8.656;2023-03-08T00:37:37;4.57;;;3.67;;
5493;SDS011;2769;49.864;8.656;2023-03-08T00:40:07;5.67;;;4.10;;
5493;SDS011;2769;49.864;8.656;2023-03-08T00:42:36;4.27;;;3.87;;
5493;SDS011;2769;49.864;8.656;2023-03-08T00:45:05;3.80;;;3.50;;
5493;SDS011;2769;49.864;8.656;2023-03-08T00:47:34;4.63;;;3.50;;
5493;SDS011;2769;49.864;8.656;2023-03-08T00:50:05;3.50;;;3.20;;
5493;SDS011;2769;49.864;8.656;2023-03-08T00:52:35;3.73;;;3.43;;
5493;SDS011;2769;49.864;8.656;2023-03-08T00:55:04;3.10;;;2.90;;
5493;SDS011;2769;49.864;8.656;2023-03-08T00:57:34;3.00;;;2.80;;
5493;SDS011;2769;49.864;8.656;2023-03-08T01:00:02;3.30;;;3.10;;
5493;SDS011;2769;49.864;8.656;2023-03-08T01:02:33;2.83;;;2.63;;
5493;SDS011;2769;49.864;8.656;2023-03-08T01:05:02;3.10;;;2.80;;
5493;SDS011;2769;49.864;8.656;2023-03-08T01:07:30;3.00;;;2.80;;
5493;SDS011;2769;49.864;8.656;2023-03-08T01:09:58;3.27;;;2.97;;
5493;SDS011;2769;49.864;8.656;2023-03-08T01:12:27;4.03;;;3.30;;
5493;SDS011;2769;49.864;8.656;2023-03-08T01:14:55;3.40;;;3.10;;
5493;SDS011;2769;49.864;8.656;2023-03-08T01:17:24;3.00;;;2.80;;
5493;SDS011;2769;49.864;8.656;2023-03-08T01:19:52;3.37;;;3.07;;
5493;SDS011;2769;49.864;8.656;2023-03-08T01:22:20;5.10;;;3.50;;
5493;SDS011;2769;49.864;8.656;2023-03-08T01:24:48;4.03;;;3.70;;
5493;SDS011;2769;49.864;8.656;2023-03-08T01:27:18;4.00;;;3.70;;
5493;SDS011;2769;49.864;8.656;2023-03-08T01:29:47;3.90;;;3.47;;
5493;SDS011;2769;49.864;8.656;2023-03-08T01:32:16;4.10;;;3.70;;
5493;SDS011;2769;49.864;8.656;2023-03-08T01:34:44;3.97;;;3.63;;
5493;SDS011;2769;49.864;8.656;2023-03-08T01:37:12;4.43;;;4.00;;
5493;SDS011;2769;49.864;8.656;2023-03-08T01:39:40;4.07;;;3.67;;
5493;SDS011;2769;49.864;8.656;2023-03-08T01:42:08;5.03;;;3.57;;
5493;SDS011;2769;49.864;8.656;2023-03-08T01:44:54;3.90;;;3.50;;
5493;SDS011;2769;49.864;8.656;2023-03-08T01:47:25;4.37;;;3.97;;
5493;SDS011;2769;49.864;8.656;2023-03-08T01:50:23;3.73;;;3.37;;
5493;SDS011;2769;49.864;8.656;2023-03-08T01:52:51;5.07;;;3.50;;
5493;SDS011;2769;49.864;8.656;2023-03-08T01:55:20;4.50;;;3.90;;
5493;SDS011;2769;49.864;8.656;2023-03-08T01:57:48;5.97;;;4.33;;
5493;SDS011;2769;49.864;8.656;2023-03-08T02:00:21;5.63;;;4.50;;
5493;SDS011;2769;49.864;8.656;2023-03-08T02:02:52;5.13;;;4.40;;
5493;SDS011;2769;49.864;8.656;2023-03-08T02:05:22;4.70;;;3.87;;
5493;SDS011;2769;49.864;8.656;2023-03-08T02:07:56;5.40;;;4.37;;
5493;SDS011;2769;49.864;8.656;2023-03-08T02:10:27;5.30;;;4.40;;
5493;SDS011;2769;49.864;8.656;2023-03-08T02:12:55;4.87;;;4.27;;
5493;SDS011;2769;49.864;8.656;2023-03-08T02:15:25;5.47;;;4.30;;
5493;SDS011;2769;49.864;8.656;2023-03-08T02:17:55;4.83;;;4.00;;
5493;SDS011;2769;49.864;8.656;2023-03-08T02:20:24;5.70;;;4.57;;
5493;SDS011;2769;49.864;8.656;2023-03-08T02:23:05;6.63;;;4.70;;
5493;SDS011;2769;49.864;8.656;2023-03-08T02:25:33;6.83;;;5.47;;
5493;SDS011;2769;49.864;8.656;2023-03-08T02:28:01;8.40;;;6.70;;
5493;SDS011;2769;49.864;8.656;2023-03-08T02:30:31;11.07;;;6.87;;
5493;SDS011;2769;49.864;8.656;2023-03-08T02:33:00;10.60;;;6.70;;
5493;SDS011;2769;49.864;8.656;2023-03-08T02:35:29;10.27;;;6.73;;
5493;SDS011;2769;49.864;8.656;2023-03-08T02:37:58;12.07;;;7.00;;
5493;SDS011;2769;49.864;8.656;2023-03-08T02:40:26;15.93;;;7.17;;
5493;SDS011;2769;49.864;8.656;2023-03-08T02:42:54;12.47;;;7.20;;
5493;SDS011;2769;49.864;8.656;2023-03-08T02:45:22;10.37;;;6.27;;
5493;SDS011;2769;49.864;8.656;2023-03-08T02:47:50;10.70;;;7.20;;
5493;SDS011;2769;49.864;8.656;2023-03-08T02:50:18;11.90;;;7.80;;
5493;SDS011;2769;49.864;8.656;2023-03-08T02:52:46;9.33;;;6.50;;
5493;SDS011;2769;49.864;8.656;2023-03-08T02:55:15;11.27;;;7.03;;
5493;SDS011;2769;49.864;8.656;2023-03-08T02:57:44;11.07;;;7.13;;
5493;SDS011;2769;49.864;8.656;2023-03-08T03:00:13;10.40;;;7.30;;
5493;SDS011;2769;49.864;8.656;2023-03-08T03:02:42;12.70;;;7.50;;
5493;SDS011;2769;49.864;8.656;2023-03-08T03:05:10;10.30;;;7.13;;
5493;SDS011;2769;49.864;8.656;2023-03-08T03:07:41;13.77;;;6.83;;
5493;SDS011;2769;49.864;8.656;2023-03-08T03:10:16;8.63;;;6.47;;
5493;SDS011;2769;49.864;8.656;2023-03-08T03:12:44;13.77;;;7.17;;
5493;SDS011;2769;49.864;8.656;2023-03-08T03:15:17;12.70;;;7.30;;
5493;SDS011;2769;49.864;8.656;2023-03-08T03:17:49;8.60;;;5.60;;
5493;SDS011;2769;49.864;8.656;2023-03-08T03:20:17;13.13;;;6.47;;
5493;SDS011;2769;49.864;8.656;2023-03-08T03:22:46;10.40;;;6.30;;
5493;SDS011;2769;49.864;8.656;2023-03-08T03:25:16;11.60;;;7.17;;
5493;SDS011;2769;49.864;8.656;2023-03-08T03:27:46;12.57;;;6.73;;
5493;SDS011;2769;49.864;8.656;2023-03-08T03:30:15;12.73;;;6.73;;
5493;SDS011;2769;49.864;8.656;2023-03-08T03:32:43;14.63;;;7.57;;
5493;SDS011;2769;49.864;8.656;2023-03-08T03:35:15;9.40;;;6.73;;
5493;SDS011;2769;49.864;8.656;2023-03-08T03:37:44;11.77;;;7.07;;
5493;SDS011;2769;49.864;8.656;2023-03-08T03:40:12;10.70;;;6.97;;
5493;SDS011;2769;49.864;8.656;2023-03-08T03:42:47;10.73;;;7.07;;
5493;SDS011;2769;49.864;8.656;2023-03-08T03:45:15;10.63;;;7.43;;
5493;SDS011;2769;49.864;8.656;2023-03-08T03:47:43;10.90;;;7.33;;
5493;SDS011;2769;49.864;8.656;2023-03-08T03:50:12;9.97;;;7.03;;
5493;SDS011;2769;49.864;8.656;2023-03-08T03:53:04;9.10;;;6.87;;
5493;SDS011;2769;49.864;8.656;2023-03-08T03:55:31;10.83;;;7.30;;
5493;SDS011;2769;49.864;8.656;2023-03-08T03:58:03;11.90;;;7.37;;
5493;SDS011;2769;49.864;8.656;2023-03-08T04:00:32;11.40;;;7.00;;
5493;SDS011;2769;49.864;8.656;2023-03-08T04:03:11;10.77;;;6.73;;
5493;SDS011;2769;49.864;8.656;2023-03-08T04:05:40;10.73;;;6.80;;
5493;SDS011;2769;49.864;8.656;2023-03-08T04:08:09;15.73;;;7.00;;
5493;SDS011;2769;49.864;8.656;2023-03-08T04:10:40;11.80;;;7.30;;
5493;SDS011;2769;49.864;8.656;2023-03-08T04:13:09;10.80;;;7.30;;
5493;SDS011;2769;49.864;8.656;2023-03-08T04:15:40;12.23;;;7.20;;
5493;SDS011;2769;49.864;8.656;2023-03-08T04:18:10;10.53;;;6.90;;
5493;SDS011;2769;49.864;8.656;2023-03-08T04:20:42;11.83;;;7.00;;
5493;SDS011;2769;49.864;8.656;2023-03-08T04:23:10;10.00;;;6.87;;
5493;SDS011;2769;49.864;8.656;2023-03-08T04:25:41;11.13;;;7.60;;
5493;SDS011;2769;49.864;8.656;2023-03-08T04:28:12;14.17;;;7.70;;
5493;SDS011;2769;49.864;8.656;2023-03-08T04:30:41;11.43;;;7.20;;
5493;SDS011;2769;49.864;8.656;2023-03-08T04:33:11;11.13;;;6.57;;
5493;SDS011;2769;49.864;8.656;2023-03-08T04:35:46;10.83;;;6.73;;
5493;SDS011;2769;49.864;8.656;2023-03-08T04:38:15;11.83;;;7.57;;
5493;SDS011;2769;49.864;8.656;2023-03-08T04:40:47;10.83;;;7.20;;
5493;SDS011;2769;49.864;8.656;2023-03-08T04:43:44;12.00;;;6.80;;
5493;SDS011;2769;49.864;8.656;2023-03-08T04:46:14;11.30;;;7.60;;
5493;SDS011;2769;49.864;8.656;2023-03-08T04:48:43;10.50;;;7.60;;
5493;SDS011;2769;49.864;8.656;2023-03-08T04:51:15;14.77;;;7.10;;
5493;SDS011;2769;49.864;8.656;2023-03-08T04:53:44;12.90;;;7.67;;
5493;SDS011;2769;49.864;8.656;2023-03-08T04:56:14;12.07;;;7.80;;
5493;SDS011;2769;49.864;8.656;2023-03-08T04:58:45;11.53;;;7.40;;
5493;SDS011;2769;49.864;8.656;2023-03-08T05:01:17;11.83;;;8.17;;
5493;SDS011;2769;49.864;8.656;2023-03-08T05:03:46;11.93;;;7.20;;
5493;SDS011;2769;49.864;8.656;2023-03-08T05:06:16;15.30;;;8.17;;
5493;SDS011;2769;49.864;8.656;2023-03-08T05:08:45;10.40;;;6.97;;
5493;SDS011;2769;49.864;8.656;2023-03-08T05:11:15;11.53;;;7.57;;
5493;SDS011;2769;49.864;8.656;2023-03-08T05:13:46;14.00;;;7.87;;
5493;SDS011;2769;49.864;8.656;2023-03-08T05:16:14;10.97;;;7.70;;
5493;SDS011;2769;49.864;8.656;2023-03-08T05:18:42;9.33;;;6.53;;
5493;SDS011;2769;49.864;8.656;2023-03-08T05:21:12;14.53;;;7.20;;
5493;SDS011;2769;49.864;8.656;2023-03-08T05:23:42;13.00;;;7.53;;
5493;SDS011;2769;49.864;8.656;2023-03-08T05:26:12;12.20;;;7.13;;
5493;SDS011;2769;49.864;8.656;2023-03-08T05:28:41;11.20;;;7.07;;
5493;SDS011;2769;49.864;8.656;2023-03-08T05:31:11;10.03;;;6.80;;
5493;SDS011;2769;49.864;8.656;2023-03-08T05:33:41;12.13;;;6.97;;
5493;SDS011;2769;49.864;8.656;2023-03-08T05:36:10;10.13;;;6.97;;
5493;SDS011;2769;49.864;8.656;2023-03-08T05:38:39;10.10;;;7.10;;
5493;SDS011;2769;49.864;8.656;2023-03-08T05:41:10;11.97;;;7.30;;
5493;SDS011;2769;49.864;8.656;2023-03-08T05:43:41;9.50;;;7.20;;
5493;SDS011;2769;49.864;8.656;2023-03-08T05:46:12;12.37;;;7.40;;
5493;SDS011;2769;49.864;8.656;2023-03-08T05:48:42;13.53;;;7.20;;
5493;SDS011;2769;49.864;8.656;2023-03-08T05:51:13;14.07;;;8.13;;
5493;SDS011;2769;49.864;8.656;2023-03-08T05:53:43;11.60;;;7.60;;
5493;SDS011;2769;49.864;8.656;2023-03-08T05:56:14;11.37;;;7.40;;
5493;SDS011;2769;49.864;8.656;2023-03-08T05:58:51;14.80;;;8.10;;
5493;SDS011;2769;49.864;8.656;2023-03-08T06:01:23;14.00;;;7.83;;
5493;SDS011;2769;49.864;8.656;2023-03-08T06:03:56;12.70;;;7.30;;
5493;SDS011;2769;49.864;8.656;2023-03-08T06:06:28;14.07;;;7.70;;
5493;SDS011;2769;49.864;8.656;2023-03-08T06:09:01;10.67;;;6.70;;
5493;SDS011;2769;49.864;8.656;2023-03-08T06:11:32;13.60;;;7.20;;
5493;SDS011;2769;49.864;8.656;2023-03-08T06:14:01;12.17;;;7.47;;
5493;SDS011;2769;49.864;8.656;2023-03-08T06:16:32;11.50;;;7.33;;
5493;SDS011;2769;49.864;8.656;2023-03-08T06:19:00;8.43;;;4.60;;
5493;SDS011;2769;49.864;8.656;2023-03-08T06:21:30;13.40;;;8.20;;
5493;SDS011;2769;49.864;8.656;2023-03-08T06:24:01;13.30;;;8.20;;
5493;SDS011;2769;49.864;8.656;2023-03-08T06:26:29;8.40;;;4.97;;
5493;SDS011;2769;49.864;8.656;2023-03-08T06:28:58;21.80;;;6.30;;
5493;SDS011;2769;49.864;8.656;2023-03-08T06:31:28;11.50;;;7.83;;
5493;SDS011;2769;49.864;8.656;2023-03-08T06:33:58;18.60;;;8.47;;
5493;SDS011;2769;49.864;8.656;2023-03-08T06:36:26;14.97;;;7.70;;
5493;SDS011;2769;49.864;8.656;2023-03-08T06:38:57;16.47;;;9.50;;
5493;SDS011;2769;49.864;8.656;2023-03-08T06:41:26;14.23;;;9.10;;
5493;SDS011;2769;49.864;8.656;2023-03-08T06:43:57;13.77;;;7.80;;
5493;SDS011;2769;49.864;8.656;2023-03-08T06:46:25;15.60;;;9.23;;
5493;SDS011;2769;49.864;8.656;2023-03-08T06:48:54;13.37;;;8.40;;
5493;SDS011;2769;49.864;8.656;2023-03-08T06:51:23;16.60;;;7.40;;
5493;SDS011;2769;49.864;8.656;2023-03-08T06:53:52;12.80;;;7.37;;
5493;SDS011;2769;49.864;8.656;2023-03-08T06:56:23;13.37;;;7.67;;
5493;SDS011;2769;49.864;8.656;2023-03-08T06:58:53;19.33;;;8.30;;
5493;SDS011;2769;49.864;8.656;2023-03-08T07:01:21;12.67;;;8.03;;
5493;SDS011;2769;49.864;8.656;2023-03-08T07:03:49;14.50;;;9.13;;
5493;SDS011;2769;49.864;8.656;2023-03-08T07:06:18;13.57;;;7.50;;
5493;SDS011;2769;49.864;8.656;2023-03-08T07:08:47;17.90;;;9.10;;
5493;SDS011;2769;49.864;8.656;2023-03-08T07:11:15;14.60;;;9.10;;
5493;SDS011;2769;49.864;8.656;2023-03-08T07:13:43;17.83;;;8.70;;
5493;SDS011;2769;49.864;8.656;2023-03-08T07:16:12;14.10;;;8.90;;
5493;SDS011;2769;49.864;8.656;2023-03-08T07:18:40;14.90;;;8.13;;
5493;SDS011;2769;49.864;8.656;2023-03-08T07:21:08;14.90;;;9.47;;
5493;SDS011;2769;49.864;8.656;2023-03-08T07:23:36;15.30;;;9.90;;
5493;SDS011;2769;49.864;8.656;2023-03-08T07:26:06;13.53;;;8.47;;
5493;SDS011;2769;49.864;8.656;2023-03-08T07:28:34;16.07;;;9.60;;
5493;SDS011;2769;49.864;8.656;2023-03-08T07:31:02;16.00;;;9.20;;
5493;SDS011;2769;49.864;8.656;2023-03-08T07:33:33;17.30;;;9.37;;
5493;SDS011;2769;49.864;8.656;2023-03-08T07:36:02;13.60;;;7.93;;
5493;SDS011;2769;49.864;8.656;2023-03-08T07:38:30;14.07;;;8.50;;
5493;SDS011;2769;49.864;8.656;2023-03-08T07:40:58;14.53;;;8.13;;
5493;SDS011;2769;49.864;8.656;2023-03-08T07:43:27;16.17;;;9.00;;
5493;SDS011;2769;49.864;8.656;2023-03-08T07:46:03;15.00;;;8.30;;
5493;SDS011;2769;49.864;8.656;2023-03-08T07:48:32;12.80;;;8.53;;
5493;SDS011;2769;49.864;8.656;2023-03-08T07:51:00;20.03;;;11.10;;
5493;SDS011;2769;49.864;8.656;2023-03-08T07:53:30;17.17;;;9.87;;
5493;SDS011;2769;49.864;8.656;2023-03-08T07:55:58;18.13;;;10.83;;
5493;SDS011;2769;49.864;8.656;2023-03-08T07:58:28;17.10;;;10.13;;
5493;SDS011;2769;49.864;8.656;2023-03-08T08:00:56;17.07;;;9.17;;
5493;SDS011;2769;49.864;8.656;2023-03-08T08:03:24;15.60;;;9.80;;
5493;SDS011;2769;49.864;8.656;2023-03-08T08:05:53;16.40;;;9.07;;
5493;SDS011;2769;49.864;8.656;2023-03-08T08:08:21;15.33;;;9.17;;
5493;SDS011;2769;49.864;8.656;2023-03-08T08:10:49;18.93;;;10.10;;
5493;SDS011;2769;49.864;8.656;2023-03-08T08:13:17;17.43;;;10.73;;
5493;SDS011;2769;49.864;8.656;2023-03-08T08:15:46;18.83;;;10.20;;
5493;SDS011;2769;49.864;8.656;2023-03-08T08:18:14;17.97;;;10.27;;
5493;SDS011;2769;49.864;8.656;2023-03-08T08:20:42;18.43;;;10.10;;
5493;SDS011;2769;49.864;8.656;2023-03-08T08:23:10;16.33;;;9.70;;
5493;SDS011;2769;49.864;8.656;2023-03-08T08:25:38;18.50;;;10.30;;
5493;SDS011;2769;49.864;8.656;2023-03-08T08:28:06;19.27;;;10.83;;
5493;SDS011;2769;49.864;8.656;2023-03-08T08:30:34;16.43;;;10.70;;
5493;SDS011;2769;49.864;8.656;2023-03-08T08:33:03;19.67;;;10.80;;
5493;SDS011;2769;49.864;8.656;2023-03-08T08:35:31;19.60;;;10.47;;
5493;SDS011;2769;49.864;8.656;2023-03-08T08:38:09;19.30;;;11.30;;
5493;SDS011;2769;49.864;8.656;2023-03-08T08:40:37;22.73;;;12.00;;
5493;SDS011;2769;49.864;8.656;2023-03-08T08:43:05;21.40;;;10.60;;
5493;SDS011;2769;49.864;8.656;2023-03-08T08:45:33;17.67;;;10.40;;
5493;SDS011;2769;49.864;8.656;2023-03-08T08:48:01;19.13;;;11.60;;
5493;SDS011;2769;49.864;8.656;2023-03-08T08:50:31;26.30;;;12.47;;
5493;SDS011;2769;49.864;8.656;2023-03-08T08:52:58;20.67;;;12.97;;
5493;SDS011;2769;49.864;8.656;2023-03-08T08:55:26;25.40;;;13.23;;
5493;SDS011;2769;49.864;8.656;2023-03-08T08:57:54;19.17;;;11.67;;
5493;SDS011;2769;49.864;8.656;2023-03-08T09:00:22;21.97;;;11.60;;
5493;SDS011;2769;49.864;8.656;2023-03-08T09:02:50;21.13;;;11.83;;
5493;SDS011;2769;49.864;8.656;2023-03-08T09:05:19;21.83;;;13.10;;
5493;SDS011;2769;49.864;8.656;2023-03-08T09:07:48;20.53;;;11.90;;
5493;SDS011;2769;49.864;8.656;2023-03-08T09:10:16;20.57;;;11.70;;
5493;SDS011;2769;49.864;8.656;2023-03-08T09:12:44;18.97;;;10.80;;
5493;SDS011;2769;49.864;8.656;2023-03-08T09:15:12;22.87;;;12.17;;
5493;SDS011;2769;49.864;8.656;2023-03-08T09:17:40;24.00;;;13.30;;
5493;SDS011;2769;49.864;8.656;2023-03-08T09:20:08;23.13;;;13.70;;
5493;SDS011;2769;49.864;8.656;2023-03-08T09:22:37;20.07;;;12.60;;
5493;SDS011;2769;49.864;8.656;2023-03-08T09:25:07;21.17;;;13.90;;
5493;SDS011;2769;49.864;8.656;2023-03-08T09:27:36;29.33;;;13.60;;
5493;SDS011;2769;49.864;8.656;2023-03-08T09:30:08;24.47;;;12.97;;
5493;SDS011;2769;49.864;8.656;2023-03-08T09:32:39;20.60;;;12.90;;
5493;SDS011;2769;49.864;8.656;2023-03-08T09:35:07;20.53;;;12.70;;
5493;SDS011;2769;49.864;8.656;2023-03-08T09:37:35;20.50;;;12.60;;
5493;SDS011;2769;49.864;8.656;2023-03-08T09:40:03;18.00;;;11.73;;
5493;SDS011;2769;49.864;8.656;2023-03-08T09:42:36;22.00;;;12.30;;
5493;SDS011;2769;49.864;8.656;2023-03-08T09:45:05;24.33;;;13.60;;
5493;SDS011;2769;49.864;8.656;2023-03-08T09:47:37;23.13;;;14.70;;
5493;SDS011;2769;49.864;8.656;2023-03-08T09:50:13;24.43;;;14.20;;
5493;SDS011;2769;49.864;8.656;2023-03-08T09:52:46;22.37;;;13.60;;
5493;SDS011;2769;49.864;8.656;2023-03-08T09:55:18;23.67;;;12.70;;
5493;SDS011;2769;49.864;8.656;2023-03-08T09:57:55;24.50;;;14.47;;
5493;SDS011;2769;49.864;8.656;2023-03-08T10:00:25;23.30;;;13.67;;
5493;SDS011;2769;49.864;8.656;2023-03-08T10:03:03;20.60;;;12.83;;
5493;SDS011;2769;49.864;8.656;2023-03-08T10:05:44;24.03;;;12.90;;
5493;SDS011;2769;49.864;8.656;2023-03-08T10:08:16;20.53;;;12.50;;
5493;SDS011;2769;49.864;8.656;2023-03-08T10:10:49;18.60;;;12.80;;
5493;SDS011;2769;49.864;8.656;2023-03-08T10:13:26;17.93;;;12.10;;
5493;SDS011;2769;49.864;8.656;2023-03-08T10:16:04;19.67;;;12.03;;
5493;SDS011;2769;49.864;8.656;2023-03-08T10:18:37;16.70;;;10.40;;
5493;SDS011;2769;49.864;8.656;2023-03-08T10:21:10;15.30;;;10.50;;
5493;SDS011;2769;49.864;8.656;2023-03-08T10:23:39;10.07;;;7.70;;
5493;SDS011;2769;49.864;8.656;2023-03-08T10:26:09;14.93;;;8.70;;
5493;SDS011;2769;49.864;8.656;2023-03-08T10:28:39;12.60;;;8.20;;
5493;SDS011;2769;49.864;8.656;2023-03-08T10:31:18;12.93;;;8.80;;
5493;SDS011;2769;49.864;8.656;2023-03-08T10:33:48;12.67;;;8.87;;
5493;SDS011;2769;49.864;8.656;2023-03-08T10:36:21;12.30;;;8.33;;
5493;SDS011;2769;49.864;8.656;2023-03-08T10:41:40;9.33;;;7.70;;
5493;SDS011;2769;49.864;8.656;2023-03-08T10:44:13;11.23;;;8.43;;
5493;SDS011;2769;49.864;8.656;2023-03-08T10:46:56;11.83;;;8.20;;
5493;SDS011;2769;49.864;8.656;2023-03-08T10:49:24;11.10;;;8.27;;
5493;SDS011;2769;49.864;8.656;2023-03-08T10:51:54;10.70;;;7.30;;
5493;SDS011;2769;49.864;8.656;2023-03-08T10:54:24;11.23;;;8.20;;
5493;SDS011;2769;49.864;8.656;2023-03-08T10:56:54;8.90;;;7.23;;
5493;SDS011;2769;49.864;8.656;2023-03-08T10:59:25;12.07;;;7.97;;
5493;SDS011;2769;49.864;8.656;2023-03-08T11:01:58;5.83;;;4.30;;
5493;SDS011;2769;49.864;8.656;2023-03-08T11:04:28;8.13;;;6.73;;
5493;SDS011;2769;49.864;8.656;2023-03-08T11:06:57;10.53;;;7.90;;
5493;SDS011;2769;49.864;8.656;2023-03-08T11:09:26;10.00;;;6.73;;
5493;SDS011;2769;49.864;8.656;2023-03-08T11:11:56;7.67;;;6.87;;
5493;SDS011;2769;49.864;8.656;2023-03-08T11:14:27;13.67;;;7.20;;
5493;SDS011;2769;49.864;8.656;2023-03-08T11:17:01;9.37;;;7.57;;
5493;SDS011;2769;49.864;8.656;2023-03-08T11:19:40;10.70;;;7.80;;
5493;SDS011;2769;49.864;8.656;2023-03-08T11:22:15;9.67;;;7.13;;
5493;SDS011;2769;49.864;8.656;2023-03-08T11:24:51;13.20;;;8.63;;
5493;SDS011;2769;49.864;8.656;2023-03-08T11:27:36;10.93;;;8.43;;
5493;SDS011;2769;49.864;8.656;2023-03-08T11:30:16;10.70;;;7.90;;
5493;SDS011;2769;49.864;8.656;2023-03-08T11:32:51;10.53;;;7.30;;
5493;SDS011;2769;49.864;8.656;2023-03-08T11:35:30;13.83;;;8.57;;
5493;SDS011;2769;49.864;8.656;2023-03-08T11:38:01;9.57;;;7.60;;
5493;SDS011;2769;49.864;8.656;2023-03-08T11:40:36;9.43;;;7.47;;
5493;SDS011;2769;49.864;8.656;2023-03-08T11:43:21;12.53;;;9.17;;
5493;SDS011;2769;49.864;8.656;2023-03-08T11:46:00;11.53;;;8.50;;
5493;SDS011;2769;49.864;8.656;2023-03-08T11:48:40;11.27;;;8.60;;
5493;SDS011;2769;49.864;8.656;2023-03-08T11:51:15;12.53;;;9.40;;
5493;SDS011;2769;49.864;8.656;2023-03-08T11:53:49;13.43;;;10.00;;
5493;SDS011;2769;49.864;8.656;2023-03-08T11:56:24;13.50;;;9.97;;
5493;SDS011;2769;49.864;8.656;2023-03-08T11:59:01;16.83;;;10.50;;
5493;SDS011;2769;49.864;8.656;2023-03-08T12:01:32;14.17;;;10.20;;
5493;SDS011;2769;49.864;8.656;2023-03-08T12:04:05;19.13;;;11.73;;
5493;SDS011;2769;49.864;8.656;2023-03-08T12:06:37;21.10;;;11.70;;
5493;SDS011;2769;49.864;8.656;2023-03-08T12:09:08;19.67;;;11.33;;
5493;SDS011;2769;49.864;8.656;2023-03-08T12:11:43;15.50;;;10.43;;
5493;SDS011;2769;49.864;8.656;2023-03-08T12:14:14;18.37;;;12.33;;
5493;SDS011;2769;49.864;8.656;2023-03-08T12:16:48;18.70;;;10.30;;
5493;SDS011;2769;49.864;8.656;2023-03-08T12:19:22;23.27;;;13.40;;
5493;SDS011;2769;49.864;8.656;2023-03-08T12:21:54;19.77;;;12.93;;
5493;SDS011;2769;49.864;8.656;2023-03-08T12:24:31;19.70;;;12.63;;
5493;SDS011;2769;49.864;8.656;2023-03-08T12:27:06;17.90;;;12.53;;
5493;SDS011;2769;49.864;8.656;2023-03-08T12:29:42;19.20;;;13.23;;
5493;SDS011;2769;49.864;8.656;2023-03-08T12:32:14;20.30;;;14.33;;
5493;SDS011;2769;49.864;8.656;2023-03-08T12:34:44;19.00;;;11.40;;
5493;SDS011;2769;49.864;8.656;2023-03-08T12:37:17;22.00;;;14.07;;
5493;SDS011;2769;49.864;8.656;2023-03-08T12:42:35;26.50;;;13.77;;
5493;SDS011;2769;49.864;8.656;2023-03-08T12:45:05;24.10;;;15.30;;
5493;SDS011;2769;49.864;8.656;2023-03-08T12:47:56;22.00;;;14.53;;
5493;SDS011;2769;49.864;8.656;2023-03-08T12:50:28;23.87;;;15.43;;
5493;SDS011;2769;49.864;8.656;2023-03-08T12:52:57;27.80;;;15.13;;
5493;SDS011;2769;49.864;8.656;2023-03-08T12:55:26;22.80;;;15.60;;
5493;SDS011;2769;49.864;8.656;2023-03-08T12:57:59;20.23;;;14.30;;
5493;SDS011;2769;49.864;8.656;2023-03-08T13:00:29;22.00;;;14.50;;
5493;SDS011;2769;49.864;8.656;2023-03-08T13:02:59;22.90;;;15.30;;
5493;SDS011;2769;49.864;8.656;2023-03-08T13:05:31;26.60;;;16.07;;
5493;SDS011;2769;49.864;8.656;2023-03-08T13:08:16;24.03;;;15.63;;
5493;SDS011;2769;49.864;8.656;2023-03-08T13:11:04;25.30;;;15.47;;
5493;SDS011;2769;49.864;8.656;2023-03-08T13:13:37;22.10;;;14.23;;
5493;SDS011;2769;49.864;8.656;2023-03-08T13:16:19;26.53;;;14.00;;
5493;SDS011;2769;49.864;8.656;2023-03-08T13:18:59;23.27;;;13.60;;
5493;SDS011;2769;49.864;8.656;2023-03-08T13:21:30;27.43;;;14.23;;
5493;SDS011;2769;49.864;8.656;2023-03-08T13:24:02;25.23;;;14.20;;
5493;SDS011;2769;49.864;8.656;2023-03-08T13:26:40;23.90;;;14.63;;
5493;SDS011;2769;49.864;8.656;2023-03-08T13:29:26;21.77;;;14.10;;
5493;SDS011;2769;49.864;8.656;2023-03-08T13:31:56;20.47;;;13.67;;
5493;SDS011;2769;49.864;8.656;2023-03-08T13:34:27;24.63;;;13.93;;
5493;SDS011;2769;49.864;8.656;2023-03-08T13:36:56;21.70;;;13.80;;
5493;SDS011;2769;49.864;8.656;2023-03-08T13:39:25;18.43;;;13.50;;
5493;SDS011;2769;49.864;8.656;2023-03-08T13:42:03;19.00;;;13.30;;
5493;SDS011;2769;49.864;8.656;2023-03-08T13:44:32;23.37;;;14.70;;
5493;SDS011;2769;49.864;8.656;2023-03-08T13:47:01;18.40;;;12.53;;
5493;SDS011;2769;49.864;8.656;2023-03-08T13:49:33;19.40;;;12.17;;
5493;SDS011;2769;49.864;8.656;2023-03-08T13:52:02;26.00;;;12.23;;
5493;SDS011;2769;49.864;8.656;2023-03-08T13:54:34;22.23;;;14.33;;
5493;SDS011;2769;49.864;8.656;2023-03-08T13:57:04;17.60;;;12.60;;
5493;SDS011;2769;49.864;8.656;2023-03-08T13:59:33;18.23;;;11.77;;
5493;SDS011;2769;49.864;8.656;2023-03-08T14:02:12;29.13;;;13.30;;
5493;SDS011;2769;49.864;8.656;2023-03-08T14:04:46;20.33;;;11.53;;
5493;SDS011;2769;49.864;8.656;2023-03-08T14:07:18;18.37;;;11.70;;
5493;SDS011;2769;49.864;8.656;2023-03-08T14:09:48;21.73;;;11.33;;
5493;SDS011;2769;49.864;8.656;2023-03-08T14:12:17;17.50;;;11.97;;
5493;SDS011;2769;49.864;8.656;2023-03-08T14:14:46;17.27;;;11.63;;
5493;SDS011;2769;49.864;8.656;2023-03-08T14:17:18;19.27;;;11.47;;
5493;SDS011;2769;49.864;8.656;2023-03-08T14:19:52;14.53;;;10.60;;
5493;SDS011;2769;49.864;8.656;2023-03-08T14:22:21;20.03;;;12.13;;
5493;SDS011;2769;49.864;8.656;2023-03-08T14:25:04;16.70;;;11.57;;
5493;SDS011;2769;49.864;8.656;2023-03-08T14:27:36;19.50;;;11.47;;
5493;SDS011;2769;49.864;8.656;2023-03-08T14:30:10;20.60;;;11.23;;
5493;SDS011;2769;49.864;8.656;2023-03-08T14:32:55;18.80;;;10.80;;
5493;SDS011;2769;49.864;8.656;2023-03-08T14:35:29;18.10;;;12.30;;
5493;SDS011;2769;49.864;8.656;2023-03-08T14:37:59;13.37;;;10.47;;
5493;SDS011;2769;49.864;8.656;2023-03-08T14:40:28;17.73;;;10.80;;
5493;SDS011;2769;49.864;8.656;2023-03-08T14:43:00;18.10;;;9.13;;
5493;SDS011;2769;49.864;8.656;2023-03-08T14:45:32;20.67;;;11.23;;
5493;SDS011;2769;49.864;8.656;2023-03-08T14:48:02;14.43;;;9.80;;
5493;SDS011;2769;49.864;8.656;2023-03-08T14:50:51;18.57;;;9.93;;
5493;SDS011;2769;49.864;8.656;2023-03-08T14:53:25;15.20;;;9.23;;
5493;SDS011;2769;49.864;8.656;2023-03-08T14:55:57;12.40;;;7.80;;
5493;SDS011;2769;49.864;8.656;2023-03-08T14:58:27;14.40;;;8.83;;
5493;SDS011;2769;49.864;8.656;2023-03-08T15:00:57;14.40;;;8.23;;
5493;SDS011;2769;49.864;8.656;2023-03-08T15:03:26;11.40;;;7.80;;
5493;SDS011;2769;49.864;8.656;2023-03-08T15:05:56;12.30;;;8.60;;
5493;SDS011;2769;49.864;8.656;2023-03-08T15:08:25;15.53;;;7.60;;
5493;SDS011;2769;49.864;8.656;2023-03-08T15:10:53;8.90;;;8.00;;
5493;SDS011;2769;49.864;8.656;2023-03-08T15:13:21;11.20;;;7.53;;
5493;SDS011;2769;49.864;8.656;2023-03-08T15:15:49;8.27;;;7.20;;
5493;SDS011;2769;49.864;8.656;2023-03-08T15:18:17;12.30;;;7.03;;
5493;SDS011;2769;49.864;8.656;2023-03-08T15:20:49;7.03;;;6.33;;
5493;SDS011;2769;49.864;8.656;2023-03-08T15:23:20;10.33;;;7.57;;
5493;SDS011;2769;49.864;8.656;2023-03-08T15:25:49;10.57;;;6.60;;
5493;SDS011;2769;49.864;8.656;2023-03-08T15:28:18;7.10;;;6.37;;